Terminal Aerodrome Forecast
Issued by NWS

Home | Current Version | Previous Version | Graphics & Text | Print | Product List | Glossary On
Versions: 1 2 3 4 5 6 7 8 9 10 11 12
000
FTUS45 KGGW 280500
TAFOLF
TAF
KOLF 280520Z 2806/2906 29012KT P6SM SCT020 OVC035
     FM282000 VRB06KT P6SM SCT200
     FM290500 08004KT P6SM SCT120=

USA.gov is the U.S. government's official web portal to all federal, state and local government web resources and services.